Hushitai, China
Current Conditions -  °F | °C
As of 7:30 PM on Thursday 18 Dec 2014 (Local Time) from ZYTX Reporting Station
Broken Clouds Broken Clouds  
Wind Chill: 13°   Ceiling: 4000
Heat Index: 19°   Visibility: 6mi
Dew Point:   Wind: 4mph
Humidity: 63%   Direction: 140°SE
Pressure: 30.3"   Gusts: NA
Location:  41.95°N, 123.51°E
Report Text: ZYTX 181130Z 14002MPS 9999 BKN040 M07/M13 Q1026 NOSIG
Loading
Personal Weather Stations






























Interactive Weather Map New forecast layout! Learn more

10-Day Weather Forecast

Advertisements
Track Severe Weather on mobile